createdAt,value
2016-11-16T00:00:35.344Z,93.75
2016-11-16T00:01:49.987Z,93.94
2016-11-16T00:03:04.968Z,93.94
2016-11-16T00:04:19.390Z,93.94
2016-11-16T00:05:34.362Z,94.23
2016-11-16T00:06:48.744Z,93.75
2016-11-16T00:08:03.281Z,93.65
2016-11-16T00:09:17.497Z,93.75
2016-11-16T00:10:31.876Z,93.75
2016-11-16T00:11:47.418Z,93.84
2016-11-16T00:13:02.251Z,93.65
2016-11-16T00:14:17.427Z,93.65
2016-11-16T00:15:32.199Z,93.18
2016-11-16T00:16:47.141Z,93.94
2016-11-16T00:18:02.370Z,93.94
2016-11-16T00:19:17.380Z,93.37
2016-11-16T00:20:31.785Z,93.37
2016-11-16T00:21:45.954Z,93.18
2016-11-16T00:23:00.696Z,94.03
2016-11-16T00:24:15.433Z,93.18
2016-11-16T00:25:29.813Z,93.75
2016-11-16T00:26:44.315Z,93.75
2016-11-16T00:27:58.635Z,93.46
2016-11-16T00:29:13.025Z,92.9
2016-11-16T00:30:28.160Z,93.27
2016-11-16T00:31:42.662Z,93.75
2016-11-16T00:33:11.522Z,93.56
2016-11-16T00:34:25.641Z,93.46
2016-11-16T00:35:40.570Z,93.75
2016-11-16T00:36:54.731Z,93.75
2016-11-16T00:38:09.050Z,93.65
2016-11-16T00:39:23.489Z,93.75
2016-11-16T00:40:37.787Z,93.56
2016-11-16T00:41:52.722Z,93.84
2016-11-16T00:43:07.111Z,93.56
2016-11-16T00:44:21.768Z,93.94
2016-11-16T00:45:36.304Z,93.94
2016-11-16T00:46:50.672Z,93.65
2016-11-16T00:48:05.129Z,93.75
2016-11-16T00:49:19.835Z,93.65
2016-11-16T00:50:34.887Z,93.94
2016-11-16T00:51:49.413Z,93.94
2016-11-16T00:53:04.272Z,93.75
2016-11-16T00:54:22.791Z,93.94
2016-11-16T00:55:42.832Z,94.13
2016-11-16T00:56:57.655Z,93.75
2016-11-16T00:58:12.573Z,93.46
2016-11-16T00:59:27.269Z,93.65
2016-11-16T01:00:42.127Z,93.56
2016-11-16T01:01:56.901Z,93.27
2016-11-16T01:03:12.539Z,93.94
2016-11-16T01:04:27.358Z,93.08
2016-11-16T01:10:55.856Z,93.08
2016-11-16T01:12:10.599Z,93.94
2016-11-16T01:13:26.192Z,93.56
2016-11-16T01:14:40.326Z,93.94
2016-11-16T01:15:54.778Z,93.75
2016-11-16T01:17:09.519Z,93.75
2016-11-16T01:18:24.241Z,94.03
2016-11-16T01:19:38.998Z,94.03
2016-11-16T01:20:53.541Z,93.75
2016-11-16T01:22:07.911Z,93.94
2016-11-16T01:23:22.655Z,93.65
2016-11-16T01:24:37.597Z,93.94
2016-11-16T01:25:51.988Z,93.56
2016-11-16T01:27:06.668Z,93.65
2016-11-16T01:28:21.317Z,93.94
2016-11-16T01:29:35.683Z,93.94
2016-11-16T01:30:50.404Z,94.03
2016-11-16T01:32:05.152Z,93.84
2016-11-16T01:33:19.283Z,93.84
2016-11-16T01:34:33.561Z,93.75
2016-11-16T01:35:47.856Z,94.13
2016-11-16T01:37:03.334Z,93.94
2016-11-16T01:38:17.443Z,93.75
2016-11-16T01:39:31.819Z,94.13
2016-11-16T01:44:02.096Z,93.75
2016-11-16T01:45:17.942Z,94.13
2016-11-16T01:47:14.615Z,93.27
2016-11-16T01:48:29.603Z,94.79
2016-11-16T01:50:21.351Z,94.13
2016-11-16T01:51:35.638Z,93.75
2016-11-16T01:52:50.177Z,94.51
2016-11-16T01:57:30.102Z,94.23
2016-11-16T01:59:17.075Z,93.65
2016-11-16T02:00:32.359Z,93.65
2016-11-16T02:01:47.086Z,94.13
2016-11-16T02:03:02.042Z,93.65
2016-11-16T02:04:16.343Z,93.75
2016-11-16T02:05:30.646Z,93.84
2016-11-16T02:06:45.207Z,93.84
2016-11-16T02:07:59.570Z,93.75
2016-11-16T02:09:14.431Z,93.84
2016-11-16T02:11:11.017Z,93.27
2016-11-16T02:12:38.538Z,93.18
2016-11-16T02:13:52.930Z,94.03
2016-11-16T02:15:07.822Z,93.27
2016-11-16T02:16:22.609Z,93.18
2016-11-16T02:17:37.187Z,93.27
2016-11-16T02:18:51.896Z,93.08
2016-11-16T02:20:06.320Z,93.37
2016-11-16T02:21:20.672Z,93.46
2016-11-16T02:22:35.255Z,93.56
2016-11-16T02:23:49.423Z,93.27
2016-11-16T02:25:04.073Z,93.94
2016-11-16T02:26:18.683Z,94.13
2016-11-16T02:28:47.538Z,93.94
2016-11-16T02:30:01.976Z,93.65
2016-11-16T02:31:16.594Z,94.6
2016-11-16T02:32:31.066Z,94.42
2016-11-16T02:33:45.821Z,94.51
2016-11-16T02:35:02.820Z,94.32
2016-11-16T02:36:17.303Z,94.6
2016-11-16T02:37:32.695Z,94.32
2016-11-16T02:39:02.031Z,94.32
2016-11-16T02:40:16.794Z,95.27
2016-11-16T02:41:31.648Z,94.51
2016-11-16T02:42:46.378Z,94.79
2016-11-16T02:44:01.250Z,94.42
2016-11-16T02:45:35.309Z,94.6
2016-11-16T02:46:49.838Z,94.51
2016-11-16T02:48:04.530Z,95.08
2016-11-16T02:49:19.176Z,94.98
2016-11-16T02:50:33.653Z,95.08
2016-11-16T02:51:48.131Z,94.79
2016-11-16T02:53:03.338Z,94.89
2016-11-16T02:54:18.260Z,95.17
2016-11-16T02:55:33.844Z,95.08
2016-11-16T02:56:48.261Z,94.7
2016-11-16T02:58:02.565Z,94.98
2016-11-16T02:59:32.016Z,94.79
2016-11-16T03:02:27.580Z,94.89
2016-11-16T03:04:39.391Z,94.98
2016-11-16T03:08:44.859Z,94.89
2016-11-16T03:10:18.694Z,95.46
2016-11-16T03:11:33.856Z,95.08
2016-11-16T03:12:48.454Z,94.79
2016-11-16T03:14:02.910Z,94.98
2016-11-16T03:15:17.300Z,95.17
2016-11-16T03:16:32.062Z,95.36
2016-11-16T03:17:46.933Z,95.75
2016-11-16T03:19:01.639Z,94.89
2016-11-16T03:20:16.645Z,95.46
2016-11-16T03:21:31.343Z,95.65
2016-11-16T03:22:45.860Z,94.7
2016-11-16T03:24:19.982Z,94.89
2016-11-16T03:25:34.618Z,94.89
2016-11-16T03:26:49.678Z,95.17
2016-11-16T03:28:04.415Z,95.08
2016-11-16T03:29:19.135Z,94.89
2016-11-16T03:30:34.036Z,95.65
2016-11-16T03:31:49.767Z,95.65
2016-11-16T03:33:04.344Z,94.89
2016-11-16T03:34:18.839Z,95.17
2016-11-16T03:35:33.416Z,94.89
2016-11-16T03:36:48.113Z,95.17
2016-11-16T03:38:09.024Z,95.08
2016-11-16T03:39:24.234Z,94.89
2016-11-16T03:40:38.930Z,94.79
2016-11-16T03:41:53.416Z,94.89
2016-11-16T03:43:08.531Z,94.6
2016-11-16T03:44:22.731Z,94.32
2016-11-16T03:46:03.117Z,94.98
2016-11-16T03:47:17.483Z,94.51
2016-11-16T03:48:32.947Z,94.51
2016-11-16T03:49:47.286Z,94.51
2016-11-16T03:51:02.451Z,94.32
2016-11-16T03:52:17.496Z,95.17
2016-11-16T03:53:32.047Z,95.17
2016-11-16T03:54:46.854Z,94.89
2016-11-16T03:56:01.310Z,95.17
2016-11-16T03:57:44.500Z,94.79
2016-11-16T03:58:58.924Z,94.98
2016-11-16T04:00:28.763Z,94.51
2016-11-16T04:02:03.230Z,95.08
2016-11-16T04:03:17.867Z,94.7
2016-11-16T04:05:48.772Z,94.32
2016-11-16T04:07:03.579Z,94.79
2016-11-16T04:08:57.234Z,94.89
2016-11-16T04:10:12.113Z,95.75
2016-11-16T04:12:54.898Z,94.89
2016-11-16T04:14:11.051Z,95.55
2016-11-16T04:15:26.227Z,95.36
2016-11-16T04:16:40.921Z,95.65
2016-11-16T04:18:06.120Z,95.75
2016-11-16T04:19:21.317Z,95.08
2016-11-16T04:20:36.654Z,95.08
2016-11-16T04:21:51.502Z,95.55
2016-11-16T04:23:07.090Z,95.17
2016-11-16T04:24:22.270Z,94.6
2016-11-16T04:25:56.653Z,95.55
2016-11-16T04:27:11.877Z,95.46
2016-11-16T04:28:27.040Z,95.65
2016-11-16T04:29:41.879Z,95.27
2016-11-16T04:30:57.270Z,95.55
2016-11-16T04:32:12.819Z,95.41
2016-11-16T04:33:27.618Z,95.08
2016-11-16T04:34:46.354Z,95.46
2016-11-16T04:36:09.184Z,95.75
2016-11-16T04:37:29.142Z,95.17
2016-11-16T04:38:52.295Z,95.08
2016-11-16T04:40:48.423Z,94.84
2016-11-16T04:42:08.095Z,95.12
2016-11-16T04:44:17.952Z,95.65
2016-11-16T04:45:33.701Z,94.84
2016-11-16T04:46:48.515Z,94.93
2016-11-16T04:52:29.423Z,95.75
2016-11-16T04:53:44.044Z,95.17
2016-11-16T04:54:58.733Z,95.36
2016-11-16T04:56:13.587Z,95.27
2016-11-16T04:57:28.440Z,94.93
2016-11-16T04:58:43.867Z,94.98
2016-11-16T05:00:17.765Z,95.22
2016-11-16T05:01:33.181Z,95.65
2016-11-16T05:04:17.143Z,95.65
2016-11-16T05:05:31.716Z,95.08
2016-11-16T05:07:05.375Z,95.7
2016-11-16T05:08:20.428Z,94.89
2016-11-16T05:09:35.643Z,95.12
2016-11-16T05:10:50.382Z,95.12
2016-11-16T05:12:05.386Z,95.22
2016-11-16T05:14:17.315Z,94.84
2016-11-16T05:15:32.559Z,94.46
2016-11-16T05:16:47.305Z,94.84
2016-11-16T05:18:02.127Z,94.46
2016-11-16T05:19:16.702Z,94.56
2016-11-16T05:20:50.953Z,94.37
2016-11-16T05:22:09.270Z,95.03
2016-11-16T05:23:24.081Z,95.75
2016-11-16T05:24:51.264Z,95.27
2016-11-16T05:26:05.932Z,96.08
2016-11-16T05:28:49.303Z,93.08
2016-11-16T05:31:10.693Z,92.99
2016-11-16T05:32:51.215Z,93.41
2016-11-16T05:34:06.045Z,94.08
2016-11-16T05:38:33.702Z,94.56
2016-11-16T05:39:48.870Z,94.84
2016-11-16T05:42:01.437Z,94.93
2016-11-16T05:43:15.911Z,95.12
2016-11-16T05:44:31.037Z,94.93
2016-11-16T05:46:50.605Z,94.84
2016-11-16T05:48:05.606Z,94.84
2016-11-16T05:49:20.473Z,95.12
2016-11-16T05:50:35.653Z,95.22
2016-11-16T05:53:07.518Z,95.7
2016-11-16T05:54:22.213Z,95.12
2016-11-16T05:55:36.952Z,95.03
2016-11-16T05:56:51.804Z,94.84
2016-11-16T05:58:06.915Z,94.93
2016-11-16T05:59:51.625Z,95.79
2016-11-16T06:01:07.832Z,94.93
2016-11-16T06:02:22.406Z,95.12
2016-11-16T06:03:38.472Z,94.93
2016-11-16T06:05:25.335Z,95.79
2016-11-16T06:06:40.645Z,95.6
2016-11-16T06:08:05.782Z,95.41
2016-11-16T06:09:20.570Z,95.6
2016-11-16T06:10:35.340Z,95.89
2016-11-16T06:12:47.777Z,94.84
2016-11-16T06:14:02.925Z,94.84
2016-11-16T06:15:18.026Z,94.93
2016-11-16T06:16:32.481Z,95.51
2016-11-16T06:23:15.300Z,95.51
2016-11-16T06:24:30.451Z,95.41
2016-11-16T06:25:46.054Z,95.41
2016-11-16T06:27:01.014Z,95.79
2016-11-16T06:28:34.619Z,95.32
2016-11-16T06:29:49.901Z,95.79
2016-11-16T06:31:05.076Z,95.79
2016-11-16T06:32:19.807Z,95.79
2016-11-16T06:33:49.373Z,95.32
2016-11-16T06:35:04.406Z,95.32
2016-11-16T06:37:16.178Z,95.41
2016-11-16T06:38:30.981Z,95.32
2016-11-16T06:43:12.612Z,94.93
2016-11-16T06:44:38.414Z,95.12
2016-11-16T06:45:52.619Z,94.93
2016-11-16T06:47:06.852Z,94.93
2016-11-16T06:48:21.505Z,94.37
2016-11-16T06:51:41.121Z,94.74
2016-11-16T06:52:57.297Z,94.18
2016-11-16T06:56:57.203Z,94.65
2016-11-16T06:59:38.384Z,95.12
2016-11-16T07:00:52.869Z,95.12
2016-11-16T07:02:07.605Z,95.79
2016-11-16T07:03:35.427Z,95.03
2016-11-16T07:04:50.187Z,94.84
2016-11-16T07:06:37.123Z,95.03
2016-11-16T07:07:52.516Z,95.7
2016-11-16T07:09:06.892Z,95.03
2016-11-16T07:10:53.636Z,95.79
2016-11-16T07:12:08.964Z,95.03
2016-11-16T07:13:23.433Z,95.6
2016-11-16T07:14:37.805Z,94.93
2016-11-16T07:16:57.025Z,95.89
2016-11-16T07:18:11.343Z,95.6
2016-11-16T07:20:12.419Z,95.7
2016-11-16T07:21:26.948Z,94.84
2016-11-16T07:23:13.445Z,94.93
2016-11-16T07:24:27.663Z,95.12
2016-11-16T07:27:41.097Z,94.93
2016-11-16T07:28:55.694Z,94.93
2016-11-16T07:31:24.287Z,94.65
2016-11-16T07:32:38.670Z,94.42
2016-11-16T07:33:54.741Z,94.7
2016-11-16T07:35:09.995Z,94.89
2016-11-16T07:36:24.706Z,94.6
2016-11-16T07:37:39.090Z,94.6
2016-11-16T07:39:12.537Z,94.03
2016-11-16T07:40:27.554Z,93.75
2016-11-16T07:42:14.290Z,93.84
2016-11-16T07:44:00.467Z,94.6
2016-11-16T07:45:15.858Z,94.6
2016-11-16T07:46:30.655Z,94.22
2016-11-16T07:47:45.293Z,94.42
2016-11-16T07:49:00.266Z,93.84
2016-11-16T07:50:44.484Z,93.84
2016-11-16T07:53:28.636Z,94.7
2016-11-16T07:55:45.145Z,93.94
2016-11-16T07:57:14.776Z,94.7
2016-11-16T07:59:01.489Z,93.75
2016-11-16T08:00:16.392Z,94.22
2016-11-16T08:01:30.971Z,93.75
2016-11-16T08:02:45.462Z,93.94
2016-11-16T08:04:14.781Z,93.94
2016-11-16T08:06:44.181Z,94.22
2016-11-16T08:13:09.658Z,94.03
2016-11-16T08:14:24.080Z,93.94
2016-11-16T08:15:38.532Z,94.03
2016-11-16T08:16:53.128Z,93.94
2016-11-16T08:18:08.072Z,94.51
2016-11-16T08:24:39.377Z,94.51
2016-11-16T08:25:56.483Z,94.03
2016-11-16T08:27:10.952Z,94.22
2016-11-16T08:30:12.993Z,93.94
2016-11-16T08:31:28.262Z,93.84
2016-11-16T08:32:42.972Z,93.84
2016-11-16T08:34:12.798Z,93.75
2016-11-16T08:35:27.428Z,93.46
2016-11-16T08:36:42.227Z,93.84
2016-11-16T08:37:57.225Z,93.27
2016-11-16T08:41:13.347Z,93.18
2016-11-16T08:43:03.622Z,93.08
2016-11-16T08:44:33.101Z,93.18
2016-11-16T08:45:47.612Z,93.55
2016-11-16T08:47:29.563Z,93.18
2016-11-16T08:48:44.515Z,93.94
2016-11-16T08:49:58.863Z,93.84
2016-11-16T08:51:13.856Z,93.23
2016-11-16T08:52:28.209Z,93.79
2016-11-16T08:53:42.882Z,92.84
2016-11-16T08:54:58.457Z,92.75
2016-11-16T08:56:15.914Z,92.94
2016-11-16T08:57:30.732Z,92.84
2016-11-16T09:01:16.399Z,92.84
2016-11-16T09:02:44.053Z,92.94
2016-11-16T09:03:59.438Z,93.04
2016-11-16T09:05:14.302Z,92.75
2016-11-16T09:06:29.208Z,92.75
2016-11-16T09:10:33.291Z,92.08
2016-11-16T09:11:54.748Z,92.94
2016-11-16T09:13:10.181Z,92.84
2016-11-16T09:14:43.807Z,92.65
2016-11-16T09:17:30.768Z,92.94
2016-11-16T09:18:46.334Z,92.27
2016-11-16T09:20:00.947Z,92.27
2016-11-16T09:23:45.253Z,91.51
2016-11-16T09:25:00.235Z,91.89
2016-11-16T09:26:14.974Z,91.7
2016-11-16T09:27:29.906Z,91.42
2016-11-16T09:30:42.630Z,92.27
2016-11-16T09:31:57.966Z,92.18
2016-11-16T09:33:12.428Z,92.08
2016-11-16T09:34:45.856Z,92.27
2016-11-16T09:36:00.536Z,92.08
2016-11-16T09:37:15.940Z,92.36
2016-11-16T09:39:14.870Z,92.65
2016-11-16T09:40:29.755Z,92.46
2016-11-16T09:41:44.558Z,92.65
2016-11-16T09:42:59.342Z,92.94
2016-11-16T09:44:14.304Z,92.46
2016-11-16T09:45:28.758Z,92.08
2016-11-16T09:46:43.221Z,92.46
2016-11-16T09:49:40.070Z,91.89
2016-11-16T09:50:54.443Z,93.13
2016-11-16T09:53:08.625Z,92.27
2016-11-16T09:54:24.455Z,91.7
2016-11-16T09:55:39.121Z,91.61
2016-11-16T09:56:53.598Z,91.51
2016-11-16T09:58:08.736Z,91.99
2016-11-16T09:59:23.706Z,91.89
2016-11-16T10:00:39.518Z,92.08
2016-11-16T10:01:54.726Z,91.99
2016-11-16T10:03:08.982Z,92.84
2016-11-16T10:04:24.071Z,92.36
2016-11-16T10:05:38.963Z,92.27
2016-11-16T10:06:54.767Z,92.08
2016-11-16T10:08:10.494Z,92.84
2016-11-16T10:09:26.456Z,92.36
2016-11-16T10:10:42.121Z,92.84
2016-11-16T10:11:56.806Z,92.18
2016-11-16T10:13:12.178Z,92.36
2016-11-16T10:14:27.208Z,92.46
2016-11-16T10:15:42.171Z,92.94
2016-11-16T10:17:11.849Z,92.08
2016-11-16T10:18:26.643Z,92.65
2016-11-16T10:19:41.618Z,93.6
2016-11-16T10:20:56.860Z,92.94
2016-11-16T10:22:11.669Z,92.56
2016-11-16T10:23:26.684Z,92.65
2016-11-16T10:24:41.991Z,93.04
2016-11-16T10:25:56.752Z,92.36
2016-11-16T10:27:11.253Z,92.03
2016-11-16T10:28:26.266Z,92.41
2016-11-16T10:29:40.771Z,92.18
2016-11-16T10:30:55.647Z,92.41
2016-11-16T10:32:10.641Z,92.75
2016-11-16T10:33:25.437Z,92.89
2016-11-16T10:34:40.276Z,92.56
2016-11-16T10:35:54.825Z,93.6
2016-11-16T10:37:10.002Z,92.94
2016-11-16T10:38:25.407Z,92.75
2016-11-16T10:39:54.944Z,93.04
2016-11-16T10:41:24.710Z,92.99
2016-11-16T10:42:39.810Z,92.41
2016-11-16T10:43:55.314Z,92.41
2016-11-16T10:45:09.944Z,92.22
2016-11-16T10:46:24.482Z,92.13
2016-11-16T10:47:39.312Z,91.65
2016-11-16T10:48:53.785Z,92.22
2016-11-16T10:51:27.213Z,91.75
2016-11-16T11:01:17.674Z,92.22
2016-11-16T11:02:36.200Z,91.65
2016-11-16T11:03:50.543Z,91.17
2016-11-16T11:05:05.534Z,91.46
2016-11-16T11:06:19.783Z,91.56
2016-11-16T11:07:34.743Z,91.46
2016-11-16T11:08:49.855Z,91.56
2016-11-16T11:10:04.300Z,91.56
2016-11-16T11:11:33.852Z,91.56
2016-11-16T11:13:19.997Z,91.84
2016-11-16T11:14:35.175Z,91.37
2016-11-16T11:20:20.085Z,91.13
2016-11-16T11:21:45.569Z,90.94
2016-11-16T11:23:00.398Z,90.84
2016-11-16T11:27:12.868Z,91.79
2016-11-16T11:28:29.711Z,91.41
2016-11-16T11:29:44.585Z,91.46
2016-11-16T11:30:58.780Z,91.22
2016-11-16T11:32:13.403Z,91.41
2016-11-16T11:33:28.147Z,91.51
2016-11-16T11:34:43.812Z,91.22
2016-11-16T11:35:58.169Z,91.13
2016-11-16T11:37:13.075Z,90.84
2016-11-16T11:38:27.448Z,90.94
2016-11-16T11:39:43.093Z,90.65
2016-11-16T11:40:58.708Z,91.13
2016-11-16T11:42:13.708Z,91.13
2016-11-16T11:43:28.056Z,90.75
2016-11-16T11:44:42.997Z,91.13
2016-11-16T11:45:57.623Z,91.13
2016-11-16T11:47:12.893Z,91.03
2016-11-16T11:48:27.654Z,90.46
2016-11-16T11:49:42.995Z,90.17
2016-11-16T11:50:57.890Z,90.84
2016-11-16T11:52:13.390Z,90.94
2016-11-16T11:53:28.245Z,90.36
2016-11-16T11:54:42.748Z,90.08
2016-11-16T11:55:57.631Z,90.84
2016-11-16T11:57:22.602Z,90.75
2016-11-16T11:58:52.861Z,90.65
2016-11-16T12:00:07.639Z,90.75
2016-11-16T12:01:22.219Z,90.94
2016-11-16T12:02:36.520Z,90.65
2016-11-16T12:03:51.461Z,90.46
2016-11-16T12:05:06.735Z,90.27
2016-11-16T12:06:22.357Z,90.36
2016-11-16T12:07:37.098Z,90.46
2016-11-16T12:08:52.131Z,90.56
2016-11-16T12:10:06.727Z,90.75
2016-11-16T12:11:21.641Z,90.56
2016-11-16T12:12:36.663Z,90.65
2016-11-16T12:13:51.216Z,89.89
2016-11-16T12:15:06.311Z,90.08
2016-11-16T12:16:21.011Z,89.51
2016-11-16T12:17:36.061Z,89.46
2016-11-16T12:18:51.527Z,89.65
2016-11-16T12:20:06.238Z,90.03
2016-11-16T12:21:21.246Z,89.36
2016-11-16T12:22:36.852Z,89.07
2016-11-16T12:23:51.556Z,89.46
2016-11-16T12:25:06.571Z,89.26
2016-11-16T12:26:21.327Z,90.03
2016-11-16T12:27:36.324Z,90.08
2016-11-16T12:28:51.084Z,90.27
2016-11-16T12:30:06.250Z,90.31
2016-11-16T12:31:20.906Z,89.46
2016-11-16T12:33:26.696Z,89.61
2016-11-16T12:34:44.300Z,90.17
2016-11-16T12:40:10.301Z,90.17
2016-11-16T12:41:38.051Z,90.46
2016-11-16T12:42:52.617Z,90.17
2016-11-16T12:44:08.183Z,89.98
2016-11-16T12:45:23.587Z,89.61
2016-11-16T12:46:38.675Z,90.36
2016-11-16T12:48:08.064Z,90.17
2016-11-16T12:49:23.030Z,90.17
2016-11-16T12:50:38.977Z,90.17
2016-11-16T12:51:53.654Z,91.31
2016-11-16T12:53:09.162Z,90.84
2016-11-16T12:54:24.130Z,90.75
2016-11-16T12:55:38.786Z,90.75
2016-11-16T12:56:53.371Z,90.84
2016-11-16T12:58:08.046Z,90.75
2016-11-16T12:59:22.984Z,90.56
2016-11-16T13:00:39.319Z,90.84
2016-11-16T13:01:54.395Z,91.22
2016-11-16T13:03:09.571Z,90.65
2016-11-16T13:04:24.213Z,90.56
2016-11-16T13:08:06.777Z,91.22
2016-11-16T13:09:21.126Z,91.6
2016-11-16T13:13:18.622Z,91.13
2016-11-16T13:14:33.324Z,91.51
2016-11-16T13:15:48.056Z,91.89
2016-11-16T13:17:03.814Z,91.31
2016-11-16T13:18:18.391Z,91.41
2016-11-16T13:19:33.225Z,91.7
2016-11-16T13:21:02.553Z,92.36
2016-11-16T13:26:55.961Z,92.36
2016-11-16T13:28:10.632Z,91.89
2016-11-16T13:29:25.230Z,91.99
2016-11-16T13:30:39.878Z,92.55
2016-11-16T13:31:55.593Z,91.99
2016-11-16T13:33:10.658Z,92.46
2016-11-16T13:34:25.947Z,92.18
2016-11-16T13:35:40.727Z,91.99
2016-11-16T13:38:53.824Z,91.99
2016-11-16T13:40:09.252Z,92.36
2016-11-16T13:41:23.879Z,92.36
2016-11-16T13:42:38.651Z,92.36
2016-11-16T13:43:53.472Z,92.18
2016-11-16T13:45:08.224Z,92.27
2016-11-16T13:46:22.615Z,92.18
2016-11-16T13:47:37.314Z,92.08
2016-11-16T13:48:51.966Z,92.36
2016-11-16T13:50:06.688Z,92.08
2016-11-16T13:51:21.053Z,93.13
2016-11-16T13:52:36.410Z,92.46
2016-11-16T13:53:51.415Z,92.55
2016-11-16T13:55:06.857Z,92.27
2016-11-16T13:56:21.744Z,93.32
2016-11-16T13:57:37.725Z,92.46
2016-11-16T13:58:54.681Z,92.55
2016-11-16T14:00:09.225Z,92.18
2016-11-16T14:01:23.871Z,92.65
2016-11-16T14:02:38.939Z,92.94
2016-11-16T14:03:54.540Z,93.03
2016-11-16T14:05:09.681Z,93.03
2016-11-16T14:06:24.868Z,92.84
2016-11-16T14:07:40.624Z,92.65
2016-11-16T14:08:55.370Z,92.94
2016-11-16T14:10:10.193Z,93.03
2016-11-16T14:11:25.782Z,93.13
2016-11-16T14:12:41.208Z,93.03
2016-11-16T14:13:56.264Z,92.84
2016-11-16T14:15:11.118Z,92.84
2016-11-16T14:16:26.560Z,93.13
2016-11-16T14:17:42.283Z,93.13
2016-11-16T14:18:57.444Z,93.03
2016-11-16T14:20:11.869Z,92.65
2016-11-16T14:21:45.780Z,93.03
2016-11-16T14:23:01.119Z,93.03
2016-11-16T14:24:16.609Z,93.22
2016-11-16T14:25:31.487Z,93.03
2016-11-16T14:26:46.957Z,93.6
2016-11-16T14:28:01.120Z,93.32
2016-11-16T14:29:15.746Z,93.03
2016-11-16T14:30:30.937Z,92.94
2016-11-16T14:31:46.533Z,92.94
2016-11-16T14:33:02.056Z,92.94
2016-11-16T14:34:16.438Z,93.03
2016-11-16T14:35:31.781Z,93.32
2016-11-16T14:36:47.347Z,93.22
2016-11-16T14:38:02.054Z,93.22
2016-11-16T14:39:16.767Z,92.74
2016-11-16T14:40:31.419Z,92.94
2016-11-16T14:41:46.004Z,92.94
2016-11-16T14:43:00.440Z,93.03
2016-11-16T14:44:14.780Z,92.84
2016-11-16T14:45:29.537Z,92.84
2016-11-16T14:46:43.935Z,92.65
2016-11-16T14:47:58.536Z,92.65
2016-11-16T14:49:13.109Z,92.74
2016-11-16T14:50:27.732Z,92.84
2016-11-16T14:51:42.487Z,92.94
2016-11-16T14:52:57.074Z,92.94
2016-11-16T14:54:13.061Z,92.84
2016-11-16T14:55:42.530Z,93.03
2016-11-16T14:57:09.706Z,93.13
2016-11-16T14:58:25.669Z,92.84
2016-11-16T14:59:41.080Z,92.94
2016-11-16T15:00:55.559Z,93.6
2016-11-16T15:02:10.356Z,93.55
2016-11-16T15:03:50.562Z,93.6
2016-11-16T15:05:06.180Z,93.98
2016-11-16T15:06:20.822Z,94.08
2016-11-16T15:07:41.768Z,93.55
2016-11-16T15:08:56.320Z,93.98
2016-11-16T15:15:38.120Z,93.6
2016-11-16T15:17:11.903Z,93.79
2016-11-16T15:18:26.634Z,94.08
2016-11-16T15:23:02.111Z,94.17
2016-11-16T15:24:17.444Z,94.17
2016-11-16T15:25:32.559Z,94.37
2016-11-16T15:26:47.584Z,94.56
2016-11-16T15:28:02.456Z,94.27
2016-11-16T15:29:17.302Z,94.65
2016-11-16T15:30:32.697Z,94.65
2016-11-16T15:31:47.404Z,94.65
2016-11-16T15:33:02.189Z,95.03
2016-11-16T15:34:17.123Z,95.03
2016-11-16T15:35:32.463Z,94.84
2016-11-16T15:36:47.359Z,95.32
2016-11-16T15:38:16.787Z,95.22
2016-11-16T15:39:31.820Z,95.89
2016-11-16T15:40:46.608Z,95.32
2016-11-16T15:42:01.384Z,95.12
2016-11-16T15:43:16.175Z,95.32
2016-11-16T15:44:31.033Z,95.12
2016-11-16T15:45:45.511Z,95.41
2016-11-16T15:47:00.437Z,95.12
2016-11-16T15:48:15.207Z,95.03
2016-11-16T15:49:30.624Z,95.22
2016-11-16T15:50:45.048Z,95.32
2016-11-16T15:51:59.998Z,95.12
2016-11-16T15:53:14.416Z,95.03
2016-11-16T15:54:29.102Z,94.74
2016-11-16T15:55:43.978Z,94.84
2016-11-16T15:56:58.914Z,95.03
2016-11-16T15:58:28.394Z,94.84
2016-11-16T15:59:42.991Z,94.56
2016-11-16T16:00:57.331Z,94.27
2016-11-16T16:02:12.620Z,94.17
2016-11-16T16:03:42.130Z,94.17
2016-11-16T16:04:57.071Z,94.08
2016-11-16T16:06:11.844Z,93.98
2016-11-16T16:07:27.650Z,94.56
2016-11-16T16:08:42.802Z,94.56
2016-11-16T16:09:57.761Z,94.65
2016-11-16T16:11:12.326Z,95.22
2016-11-16T16:12:27.108Z,94.17
2016-11-16T16:13:42.295Z,94.17
2016-11-16T16:14:57.238Z,94.08
2016-11-16T16:16:11.737Z,93.89
2016-11-16T16:17:26.755Z,94.46
2016-11-16T16:18:41.468Z,94.27
2016-11-16T16:19:56.582Z,93.79
2016-11-16T16:21:11.731Z,94.17
2016-11-16T16:22:26.150Z,94.17
2016-11-16T16:23:55.686Z,94.27
2016-11-16T16:25:25.217Z,94.17
2016-11-16T16:26:39.617Z,93.6
2016-11-16T16:27:54.949Z,94.27
2016-11-16T16:29:10.184Z,94.37
2016-11-16T16:30:25.521Z,93.98
2016-11-16T16:31:39.862Z,93.51
2016-11-16T16:32:54.724Z,93.89
2016-11-16T16:34:09.664Z,93.89
2016-11-16T16:35:24.988Z,93.7
2016-11-16T16:36:39.794Z,94.08
2016-11-16T16:37:54.817Z,93.98
2016-11-16T16:39:09.735Z,93.89
2016-11-16T16:40:24.997Z,93.7
2016-11-16T16:41:42.581Z,93.98
2016-11-16T16:42:57.289Z,94.08
2016-11-16T16:44:11.920Z,93.6
2016-11-16T16:45:26.553Z,93.98
2016-11-16T16:46:41.908Z,93.98
2016-11-16T16:47:57.215Z,93.89
2016-11-16T16:49:11.687Z,93.89
2016-11-16T16:50:26.922Z,94.08
2016-11-16T16:51:42.612Z,94.27
2016-11-16T16:52:57.285Z,93.6
2016-11-16T16:54:12.344Z,93.89
2016-11-16T16:55:27.174Z,94.17
2016-11-16T16:56:42.287Z,93.98
2016-11-16T16:57:57.812Z,93.41
2016-11-16T16:59:12.389Z,93.51
2016-11-16T17:00:28.129Z,93.51
2016-11-16T17:01:44.056Z,93.6
2016-11-16T17:02:58.873Z,93.22
2016-11-16T17:04:13.369Z,93.41
2016-11-16T17:05:27.884Z,93.13
2016-11-16T17:06:42.668Z,93.89
2016-11-16T17:07:57.284Z,93.6
2016-11-16T17:09:12.804Z,94.17
2016-11-16T17:10:27.843Z,94.17
2016-11-16T17:11:44.052Z,93.41
2016-11-16T17:13:13.475Z,92.94
2016-11-16T17:14:28.725Z,93.6
2016-11-16T17:15:44.209Z,93.13
2016-11-16T17:16:59.361Z,93.13
2016-11-16T17:18:14.510Z,93.22
2016-11-16T17:19:45.437Z,93.7
2016-11-16T17:21:03.313Z,93.22
2016-11-16T17:22:17.828Z,93.03
2016-11-16T17:23:33.468Z,92.94
2016-11-16T17:24:48.086Z,93.41
2016-11-16T17:26:02.876Z,93.51
2016-11-16T17:27:17.875Z,93.32
2016-11-16T17:28:35.175Z,93.65
2016-11-16T17:29:52.199Z,93.22
2016-11-16T17:31:06.888Z,93.22
2016-11-16T17:32:21.847Z,93.51
2016-11-16T17:33:37.479Z,93.51
2016-11-16T17:36:37.146Z,93.13
2016-11-16T17:37:52.811Z,93.51
2016-11-16T17:39:07.736Z,93.51
2016-11-16T17:40:23.092Z,94.03
2016-11-16T17:41:38.713Z,93.51
2016-11-16T17:42:53.654Z,93.41
2016-11-16T17:44:08.327Z,93.22
2016-11-16T17:45:23.665Z,92.94
2016-11-16T17:46:39.312Z,93.13
2016-11-16T17:47:53.904Z,93.7
2016-11-16T17:49:08.326Z,92.89
2016-11-16T17:50:22.779Z,92.98
2016-11-16T17:51:37.930Z,93.08
2016-11-16T17:52:52.690Z,93.03
2016-11-16T17:54:08.219Z,92.84
2016-11-16T17:55:24.213Z,93.79
2016-11-16T17:56:39.181Z,92.94
2016-11-16T17:57:53.864Z,93.32
2016-11-16T17:59:08.417Z,93.6
2016-11-16T18:00:25.728Z,93.13
2016-11-16T18:01:41.143Z,93.37
2016-11-16T18:02:56.522Z,93.41
2016-11-16T18:04:11.255Z,93.41
2016-11-16T18:05:25.870Z,93.51
2016-11-16T18:06:40.597Z,93.65
2016-11-16T18:07:55.628Z,93.08
2016-11-16T18:09:11.115Z,93.37
2016-11-16T18:10:25.866Z,93.17
2016-11-16T18:11:40.900Z,92.89
2016-11-16T18:12:55.699Z,92.98
2016-11-16T18:14:10.698Z,92.89
2016-11-16T18:15:25.275Z,92.89
2016-11-16T18:16:41.102Z,92.98
2016-11-16T18:17:56.039Z,93.08
2016-11-16T18:19:11.658Z,93.08
2016-11-16T18:20:28.317Z,92.79
2016-11-16T18:21:43.324Z,93.08
2016-11-16T18:22:58.622Z,92.69
2016-11-16T18:24:14.546Z,92.5
2016-11-16T18:25:30.699Z,92.5
2016-11-16T18:26:45.792Z,92.32
2016-11-16T18:28:00.401Z,92.41
2016-11-16T18:29:16.040Z,92.41
2016-11-16T18:30:31.336Z,92.5
2016-11-16T18:31:46.068Z,92.69
2016-11-16T18:33:15.836Z,93.08
2016-11-16T18:34:31.417Z,92.79
2016-11-16T18:35:46.182Z,92.98
2016-11-16T18:38:30.464Z,93.08
2016-11-16T18:40:00.179Z,93.17
2016-11-16T18:41:16.532Z,92.89
2016-11-16T18:42:31.758Z,92.98
2016-11-16T18:43:46.393Z,92.89
2016-11-16T18:45:01.720Z,92.6
2016-11-16T18:46:16.581Z,92.22
2016-11-16T18:47:32.077Z,92.03
2016-11-16T18:48:47.810Z,92.6
2016-11-16T18:50:05.412Z,92.5
2016-11-16T18:51:21.240Z,92.41
2016-11-16T18:52:35.994Z,92.5